Time;durP1;ratioP1;P1;durP2;ratioP2;P2;SDS_P1;SDS_P2;PMS_P1;PMS_P2;Temp;Humidity;BMP_temperature;BMP_pressure;BME280_temperature;BME280_humidity;BME280_pressure;Samples;Min_cycle;Max_cycle;Signal;HPM_P1;HPM_P2
2022/08/11 00:01:19;;;;;;;6.18;4.22;;;17.70;99.90;;;;;;5034595;28;20534;-66
2022/08/11 00:03:57;;;;;;;8.43;5.00;;;17.70;99.90;;;;;;5034801;28;20500;-66
2022/08/11 00:06:34;;;;;;;7.10;4.03;;;17.90;99.90;;;;;;5034729;28;20037;-66
2022/08/11 00:09:03;;;;;;;6.25;4.40;;;17.60;99.90;;;;;;5034727;28;20045;-66
2022/08/11 00:11:33;;;;;;;8.27;4.07;;;17.50;99.90;;;;;;5033208;28;20075;-66
2022/08/11 00:13:59;;;;;;;5.93;4.43;;;17.60;99.90;;;;;;5033420;28;20041;-66
2022/08/11 00:16:26;;;;;;;6.82;4.95;;;17.60;99.90;;;;;;5049610;28;20040;-66
2022/08/11 00:18:55;;;;;;;6.53;4.45;;;17.50;99.90;;;;;;5073030;28;20037;-66
2022/08/11 00:21:23;;;;;;;6.85;4.57;;;17.30;99.90;;;;;;5069407;28;20044;-66
2022/08/11 00:23:53;;;;;;;13.45;5.65;;;17.60;99.90;;;;;;5058020;28;20498;-66
2022/08/11 00:26:21;;;;;;;6.95;4.32;;;17.40;99.90;;;;;;5039045;28;20044;-66
2022/08/11 00:28:46;;;;;;;7.13;5.43;;;17.50;99.90;;;;;;5063706;28;20037;-66
2022/08/11 00:31:28;;;;;;;6.50;5.10;;;17.10;99.90;;;;;;5058484;28;20540;-66
2022/08/11 00:33:55;;;;;;;7.80;4.93;;;17.60;99.90;;;;;;5053168;28;20041;-66
2022/08/11 00:36:27;;;;;;;6.47;5.07;;;17.10;99.90;;;;;;5054118;28;20029;-66
2022/08/11 00:39:01;;;;;;;6.18;5.07;;;17.20;99.90;;;;;;5054379;28;20045;-66
2022/08/11 00:42:05;;;;;;;7.77;5.47;;;17.10;99.90;;;;;;5067988;28;20040;-66
2022/08/11 00:44:54;;;;;;;9.35;4.95;;;17.30;99.90;;;;;;5054152;28;20049;-66
2022/08/11 00:47:32;;;;;;;8.90;5.38;;;17.00;99.90;;;;;;5056347;28;20071;-66
2022/08/11 00:50:25;;;;;;;9.95;5.57;;;17.10;99.90;;;;;;5073018;28;20567;-66
2022/08/11 00:53:16;;;;;;;8.77;5.15;;;16.90;99.90;;;;;;5068202;28;20056;-66
2022/08/11 00:56:00;;;;;;;9.57;6.07;;;16.90;99.90;;;;;;5066423;28;20052;-66
2022/08/11 00:58:38;;;;;;;8.40;5.23;;;17.20;99.90;;;;;;5067012;28;20094;-66
2022/08/11 01:01:15;;;;;;;8.95;5.57;;;16.90;99.90;;;;;;5047186;28;20120;-66
2022/08/11 01:04:12;;;;;;;7.85;5.07;;;17.00;99.90;;;;;;5053751;28;20037;-66
2022/08/11 01:06:54;;;;;;;8.55;6.25;;;17.10;99.90;;;;;;5066260;28;20119;-66
2022/08/11 01:09:51;;;;;;;8.18;6.00;;;16.90;99.90;;;;;;5046715;28;20044;-66
2022/08/11 01:12:30;;;;;;;9.05;5.82;;;16.90;99.90;;;;;;5073468;28;20051;-66
2022/08/11 01:15:32;;;;;;;8.05;6.57;;;16.90;99.90;;;;;;5072243;28;20383;-66
2022/08/11 01:18:35;;;;;;;9.32;6.78;;;16.90;99.90;;;;;;5053298;28;20077;-66
2022/08/11 01:21:15;;;;;;;8.02;6.30;;;16.80;99.90;;;;;;5067087;28;20039;-66
2022/08/11 01:24:15;;;;;;;11.45;7.07;;;16.80;99.90;;;;;;5066282;28;20379;-66
2022/08/11 01:26:43;;;;;;;6.70;6.03;;;17.00;99.90;;;;;;5050084;28;20059;-66
2022/08/11 01:29:33;;;;;;;7.00;5.80;;;16.80;99.90;;;;;;5071816;28;20174;-66
2022/08/11 01:32:36;;;;;;;6.53;5.82;;;16.60;99.90;;;;;;5071971;28;20094;-66
2022/08/11 01:35:17;;;;;;;10.07;6.97;;;16.70;99.90;;;;;;5071696;28;20044;-66
2022/08/11 01:38:04;;;;;;;8.55;5.78;;;17.20;99.90;;;;;;5061741;28;20054;-66
2022/08/11 01:41:21;;;;;;;8.75;6.60;;;16.80;99.90;;;;;;5035197;28;20490;-66
2022/08/11 01:50:23;;;;;;;8.57;6.65;;;16.60;99.90;;;;;;5057297;28;20040;-66
2022/08/11 01:53:16;;;;;;;10.57;7.10;;;16.60;99.90;;;;;;5071440;28;20052;-66
2022/08/11 01:55:56;;;;;;;7.30;5.85;;;16.50;99.90;;;;;;5072828;28;20487;-66
2022/08/11 01:58:47;;;;;;;10.00;6.45;;;16.30;99.90;;;;;;5057084;28;20284;-66
2022/08/11 02:01:34;;;;;;;8.15;7.03;;;16.50;99.90;;;;;;5059924;28;20122;-66
2022/08/11 02:04:08;;;;;;;10.10;7.38;;;16.70;99.90;;;;;;5058953;28;20044;-65
2022/08/11 02:06:55;;;;;;;8.63;7.22;;;16.60;99.90;;;;;;5070243;28;20043;-66
2022/08/11 02:09:58;;;;;;;9.70;6.93;;;16.30;99.90;;;;;;5061026;28;20056;-66
2022/08/11 02:12:43;;;;;;;8.27;6.65;;;16.50;99.90;;;;;;5058361;28;20453;-65
2022/08/11 02:15:19;;;;;;;11.23;7.60;;;16.40;99.90;;;;;;5058407;28;20087;-66
2022/08/11 02:18:03;;;;;;;9.18;6.72;;;16.20;99.90;;;;;;5050860;28;20294;-66
2022/08/11 02:26:10;;;;;;;9.68;7.57;;;16.40;99.90;;;;;;5052481;28;20048;-67
2022/08/11 02:28:48;;;;;;;8.35;7.03;;;16.20;99.90;;;;;;5072331;28;20085;-65
2022/08/11 02:34:30;;;;;;;9.05;6.45;;;16.30;99.90;;;;;;5072047;28;20052;-65
2022/08/11 02:37:14;;;;;;;10.98;7.60;;;16.50;99.90;;;;;;5071208;28;20047;-66
2022/08/11 02:39:49;;;;;;;9.88;6.90;;;16.20;99.90;;;;;;5054716;28;20040;-65
2022/08/11 02:42:39;;;;;;;9.52;7.43;;;16.10;99.90;;;;;;5034191;28;20414;-66
2022/08/11 02:45:11;;;;;;;7.80;5.80;;;15.90;99.90;;;;;;5057809;28;20041;-66
2022/08/11 02:51:09;;;;;;;6.55;4.70;;;15.60;99.90;;;;;;5047461;28;20049;-66
2022/08/11 02:54:20;;;;;;;8.15;5.80;;;15.60;99.90;;;;;;5076064;28;20044;-66
2022/08/11 02:57:12;;;;;;;7.15;5.70;;;15.80;99.90;;;;;;5061882;28;20044;-66
2022/08/11 02:59:55;;;;;;;7.63;6.15;;;15.80;99.90;;;;;;5075778;28;20170;-66
2022/08/11 03:02:53;;;;;;;9.43;7.00;;;15.90;99.90;;;;;;5075887;28;20517;-65
2022/08/11 03:05:30;;;;;;;8.90;7.28;;;15.80;99.90;;;;;;5061646;28;20056;-66
2022/08/11 03:07:59;;;;;;;7.18;6.40;;;15.90;99.90;;;;;;5062344;28;20080;-66
2022/08/11 03:10:41;;;;;;;6.05;5.45;;;15.70;99.90;;;;;;5074072;28;20552;-65
2022/08/11 03:16:45;;;;;;;4.55;3.60;;;15.90;99.90;;;;;;5021495;28;20049;-65
2022/08/11 03:19:49;;;;;;;4.57;3.22;;;15.80;99.90;;;;;;5049095;28;20055;-65
2022/08/11 03:22:28;;;;;;;3.05;2.65;;;15.50;99.90;;;;;;5073423;28;20402;-66
2022/08/11 03:25:04;;;;;;;5.25;2.80;;;15.70;99.90;;;;;;5066613;28;20568;-65
2022/08/11 03:27:42;;;;;;;5.60;3.00;;;15.60;99.90;;;;;;5070904;28;20070;-66
2022/08/11 03:30:25;;;;;;;2.95;2.35;;;15.40;99.90;;;;;;5075772;28;20123;-65
2022/08/11 03:36:06;;;;;;;;;;;15.60;99.90;;;;;;5061728;28;20041;-66
2022/08/11 03:38:47;;;;;;;4.10;3.63;;;15.50;99.90;;;;;;5075066;28;19923;-66
2022/08/11 03:41:46;;;;;;;6.10;5.20;;;15.60;99.90;;;;;;5072843;28;20506;-65
2022/08/11 03:44:59;;;;;;;6.63;5.80;;;15.40;99.90;;;;;;5055242;28;20029;-65
2022/08/11 03:47:43;;;;;;;8.82;5.75;;;15.50;99.90;;;;;;5018596;28;20096;-65
2022/08/11 03:50:22;;;;;;;6.13;5.03;;;15.60;99.90;;;;;;5074683;28;20040;-66
2022/08/11 03:53:17;;;;;;;5.53;4.30;;;15.20;99.90;;;;;;5075284;28;20490;-66
2022/08/11 03:56:11;;;;;;;4.83;4.33;;;15.40;99.90;;;;;;5073827;28;20040;-66
2022/08/11 03:59:04;;;;;;;5.60;4.30;;;15.40;99.90;;;;;;5069144;28;20565;-65
2022/08/11 04:02:08;;;;;;;6.00;4.63;;;15.50;99.90;;;;;;5068328;28;20521;-66
2022/08/11 04:04:58;;;;;;;6.35;5.00;;;15.30;99.90;;;;;;5053721;28;20128;-65
2022/08/11 04:07:54;;;;;;;6.00;5.30;;;15.40;99.90;;;;;;5050202;28;20044;-66
2022/08/11 04:11:01;;;;;;;4.97;4.47;;;15.40;99.90;;;;;;5070410;28;20037;-65
2022/08/11 04:13:36;;;;;;;7.28;5.85;;;15.30;99.90;;;;;;5073499;28;20048;-66
2022/08/11 04:16:29;;;;;;;47.67;6.43;;;15.20;99.90;;;;;;5074223;28;20482;-66
2022/08/11 04:19:44;;;;;;;18.75;4.20;;;15.00;99.90;;;;;;5054745;28;20051;-65
2022/08/11 04:22:34;;;;;;;7.00;4.00;;;14.60;99.90;;;;;;5057687;28;20091;-65
2022/08/11 04:25:40;;;;;;;6.28;4.13;;;14.40;99.90;;;;;;5066076;28;20102;-65
2022/08/11 04:28:26;;;;;;;;;;;14.70;99.90;;;;;;5041128;28;20047;-65
2022/08/11 04:31:23;;;;;;;5.35;4.80;;;14.70;99.90;;;;;;5046293;28;20498;-65
2022/08/11 04:34:23;;;;;;;5.88;4.90;;;14.90;99.90;;;;;;5054387;28;20033;-65
2022/08/11 04:37:33;;;;;;;6.10;5.10;;;15.00;99.90;;;;;;5057579;28;20124;-66
2022/08/11 04:40:17;;;;;;;4.07;3.40;;;14.90;99.90;;;;;;5067188;28;20434;-65
2022/08/11 04:43:21;;;;;;;4.93;3.83;;;15.00;99.90;;;;;;5036136;28;20041;-65
2022/08/11 04:46:12;;;;;;;5.75;4.35;;;14.90;99.90;;;;;;5052958;28;20072;-65
2022/08/11 05:01:40;;;;;;;8.45;7.55;;;15.50;99.90;;;;;;5062157;28;20505;-65
2022/08/11 05:07:47;;;;;;;11.85;8.73;;;15.40;99.90;;;;;;5042951;28;20042;-65
2022/08/11 05:10:46;;;;;;;13.77;10.40;;;15.50;99.90;;;;;;5068615;28;20098;-66
2022/08/11 05:37:02;;;;;;;19.95;11.77;;;16.30;99.90;;;;;;5060193;28;20066;-65
2022/08/11 05:56:42;;;;;;;14.25;8.80;;;19.60;99.90;;;;;;5065369;28;20410;-66
2022/08/11 05:59:14;;;;;;;10.60;7.65;;;20.50;99.90;;;;;;5060886;28;20056;-66
2022/08/11 06:01:41;;;;;;;10.63;7.28;;;21.40;99.90;;;;;;5058394;28;20048;-66
2022/08/11 06:04:14;;;;;;;11.35;7.20;;;21.40;99.90;;;;;;5071543;28;20058;-66
2022/08/11 06:06:50;;;;;;;10.75;6.78;;;21.70;99.90;;;;;;5058164;28;20036;-66
2022/08/11 06:09:23;;;;;;;10.10;6.43;;;21.70;99.90;;;;;;5071589;28;20044;-66
2022/08/11 06:11:50;;;;;;;8.17;5.93;;;22.30;99.90;;;;;;5058295;28;20043;-66
2022/08/11 06:14:18;;;;;;;7.80;5.07;;;23.10;99.90;;;;;;5046572;28;20048;-66
2022/08/11 06:16:48;;;;;;;8.75;5.70;;;24.10;99.90;;;;;;5053002;28;20040;-66
2022/08/11 06:19:15;;;;;;;7.45;5.38;;;24.70;99.90;;;;;;5018126;28;20484;-66
2022/08/11 06:21:45;;;;;;;6.13;4.57;;;25.10;99.90;;;;;;5042829;28;20083;-66
2022/08/11 06:24:14;;;;;;;7.85;5.15;;;25.50;99.90;;;;;;5052067;28;20037;-66
2022/08/11 06:26:49;;;;;;;6.15;4.70;;;26.50;99.90;;;;;;5060515;28;20037;-66
2022/08/11 06:29:17;;;;;;;5.40;4.25;;;26.70;99.90;;;;;;5055742;28;20041;-66
2022/08/11 06:32:00;;;;;;;8.57;4.65;;;27.10;99.90;;;;;;5050979;28;20053;-66
2022/08/11 06:34:58;;;;;;;6.32;3.70;;;27.40;99.90;;;;;;5067474;28;20063;-66
2022/08/11 06:37:55;;;;;;;6.03;3.75;;;28.00;99.90;;;;;;5072181;28;20120;-67
2022/08/11 06:40:40;;;;;;;9.40;3.83;;;28.20;99.90;;;;;;5070644;28;20036;-66
2022/08/11 06:43:20;;;;;;;5.65;3.55;;;28.90;99.90;;;;;;5071998;28;20498;-66
2022/08/11 06:46:02;;;;;;;6.55;3.65;;;30.20;99.90;;;;;;5065550;28;20407;-67
2022/08/11 06:48:31;;;;;;;7.90;3.17;;;29.00;99.90;;;;;;5070728;28;20496;-67
2022/08/11 06:51:13;;;;;;;11.18;2.95;;;30.90;99.90;;;;;;5058196;28;20041;-67
2022/08/11 06:53:47;;;;;;;5.30;3.20;;;29.80;99.90;;;;;;5053965;28;20087;-66
2022/08/11 07:02:05;;;;;;;6.80;2.50;;;31.90;99.90;;;;;;5053425;28;20084;-66
2022/08/11 07:04:47;;;;;;;4.50;2.10;;;33.00;99.90;;;;;;5051932;28;20080;-67
2022/08/11 07:16:49;;;;;;;4.13;1.95;;;28.00;99.90;;;;;;5044817;28;20491;-66
2022/08/11 07:30:48;;;;;;;5.30;1.73;;;26.30;99.90;;;;;;5065512;28;20049;-66
2022/08/11 07:33:21;;;;;;;4.75;1.45;;;24.90;99.90;;;;;;5040929;28;20078;-66
2022/08/11 07:35:56;;;;;;;6.03;1.43;;;24.60;99.90;;;;;;5055389;28;20510;-66
2022/08/11 07:38:42;;;;;;;3.45;1.60;;;24.30;99.90;;;;;;5041643;28;20437;-66
2022/08/11 07:41:13;;;;;;;5.68;1.58;;;25.90;99.90;;;;;;5054955;28;20073;-66
2022/08/11 07:43:40;;;;;;;3.33;1.35;;;24.20;99.90;;;;;;5074050;28;20052;-66
2022/08/11 07:54:22;;;;;;;3.10;1.15;;;24.30;99.90;;;;;;5053917;28;20056;-66
2022/08/11 07:56:49;;;;;;;2.75;0.90;;;25.70;99.90;;;;;;5059026;28;20040;-66
2022/08/11 08:18:34;;;;;;;3.42;1.00;;;24.40;99.90;;;;;;5050416;28;20045;-66
2022/08/11 08:21:10;;;;;;;2.88;1.00;;;24.10;99.90;;;;;;5040380;28;20030;-66
2022/08/11 08:23:41;;;;;;;2.42;0.73;;;24.50;99.90;;;;;;5035176;28;20045;-66
2022/08/11 08:30:46;;;;;;;3.40;1.40;;;24.50;99.90;;;;;;5048126;28;20045;-66
2022/08/11 08:31:49;;;;;;;2.88;1.15;;;24.60;99.90;;;;;;5035203;28;20124;-66
2022/08/11 08:34:16;;;;;;;4.63;0.93;;;24.90;99.90;;;;;;5034500;28;20533;-66
2022/08/11 08:36:44;;;;;;;2.50;1.00;;;25.10;99.90;;;;;;5034566;28;20052;-66
2022/08/11 08:39:11;;;;;;;4.68;1.17;;;25.00;99.90;;;;;;5034212;28;20037;-67
2022/08/11 08:41:38;;;;;;;2.80;0.60;;;25.00;99.90;;;;;;5033472;28;20045;-66
2022/08/11 08:44:08;;;;;;;2.38;0.57;;;26.30;99.90;;;;;;5038117;28;20077;-66
2022/08/11 08:46:39;;;;;;;3.38;1.05;;;25.10;99.90;;;;;;5037526;28;20491;-67
2022/08/11 08:49:09;;;;;;;3.08;0.75;;;25.00;99.90;;;;;;5046276;28;20029;-66
2022/08/11 08:51:38;;;;;;;2.90;0.60;;;24.90;99.90;;;;;;5036009;28;20029;-66
2022/08/11 08:54:07;;;;;;;3.72;0.80;;;25.30;99.90;;;;;;5038068;28;20049;-66
2022/08/11 08:56:36;;;;;;;2.63;0.93;;;25.20;99.90;;;;;;5033201;28;20039;-66
2022/08/11 08:59:03;;;;;;;2.38;1.15;;;25.10;99.90;;;;;;5031400;28;20503;-66
2022/08/11 09:01:34;;;;;;;3.17;0.90;;;25.20;99.90;;;;;;5033551;28;20048;-66
2022/08/11 09:04:02;;;;;;;3.33;1.30;;;25.30;99.90;;;;;;5032654;28;20069;-66
2022/08/11 09:06:31;;;;;;;3.80;0.90;;;25.50;99.90;;;;;;5033315;28;20494;-66
2022/08/11 09:08:58;;;;;;;3.55;0.75;;;27.00;99.90;;;;;;5033787;28;20415;-66
2022/08/11 09:14:09;;;;;;;5.28;1.23;;;27.20;99.90;;;;;;5031382;28;20403;-67
2022/08/11 09:16:38;;;;;;;3.13;1.25;;;26.10;99.90;;;;;;5032448;28;20037;-66
2022/08/11 09:19:04;;;;;;;3.25;0.80;;;26.20;99.90;;;;;;5036914;28;20042;-66
2022/08/11 09:21:31;;;;;;;3.20;0.98;;;26.00;99.90;;;;;;5042368;28;20055;-67
2022/08/11 09:26:58;;;;;;;1.55;0.88;;;26.60;99.90;;;;;;5034999;28;20073;-66
2022/08/11 09:29:27;;;;;;;2.40;0.90;;;26.40;99.90;;;;;;5043767;28;20033;-66
2022/08/11 09:31:54;;;;;;;3.20;0.73;;;26.50;99.90;;;;;;5036735;28;20048;-66
2022/08/11 09:34:21;;;;;;;2.97;1.27;;;26.50;99.90;;;;;;5033928;28;20048;-66
2022/08/11 09:42:22;;;;;;;2.90;0.60;;;28.30;99.90;;;;;;5032579;28;20042;-66
2022/08/11 09:44:48;;;;;;;3.72;1.00;;;27.10;99.90;;;;;;5037313;28;20487;-66
2022/08/11 09:47:24;;;;;;;4.68;0.80;;;27.60;99.90;;;;;;5034643;28;20038;-67
2022/08/11 09:50:00;;;;;;;3.15;0.70;;;27.20;99.90;;;;;;5037786;28;20033;-67
2022/08/11 09:52:29;;;;;;;3.63;1.13;;;28.50;99.90;;;;;;5028736;28;20049;-67
2022/08/11 09:54:55;;;;;;;3.50;0.70;;;27.50;99.90;;;;;;5033851;28;20045;-67
2022/08/11 10:00:08;;;;;;;3.45;0.70;;;27.40;99.90;;;;;;5046710;28;20076;-67
2022/08/11 10:02:41;;;;;;;2.75;0.80;;;27.30;99.90;;;;;;5034229;28;20042;-67
2022/08/11 10:07:53;;;;;;;2.97;0.90;;;27.50;99.90;;;;;;5045689;28;20149;-67
2022/08/11 10:10:21;;;;;;;3.70;1.13;;;29.10;99.90;;;;;;5034101;28;20036;-67
2022/08/11 10:12:49;;;;;;;2.78;0.70;;;27.80;99.90;;;;;;5032591;28;20057;-67
2022/08/11 10:15:32;;;;;;;3.58;0.93;;;27.80;99.90;;;;;;5046490;28;20033;-67
2022/08/11 10:20:54;;;;;;;4.03;0.90;;;28.10;99.90;;;;;;5045762;28;20049;-67
2022/08/11 10:28:52;;;;;;;4.85;0.77;;;28.00;99.90;;;;;;5034577;28;20042;-67
2022/08/11 10:34:07;;;;;;;2.10;0.80;;;27.80;99.90;;;;;;5032694;28;20049;-67
2022/08/11 10:36:41;;;;;;;5.10;0.57;;;28.10;99.90;;;;;;5034848;28;20171;-67
2022/08/11 10:39:09;;;;;;;1.63;0.57;;;27.90;99.90;;;;;;5031356;28;20049;-67
2022/08/11 10:44:21;;;;;;;6.38;0.68;;;28.40;99.90;;;;;;5049076;28;20041;-67
2022/08/11 10:49:33;;;;;;;3.70;0.80;;;28.90;99.90;;;;;;5050341;28;20041;-67
2022/08/11 11:00:14;;;;;;;3.47;0.80;;;28.70;99.90;;;;;;5038837;28;20049;-67
2022/08/11 11:02:42;;;;;;;3.47;0.60;;;28.30;99.90;;;;;;5043341;28;20433;-66
2022/08/11 11:05:18;;;;;;;2.58;0.68;;;29.70;99.90;;;;;;5034144;28;20045;-67
2022/08/11 11:08:51;;;;;;;4.72;0.80;;;28.50;99.90;;;;;;5043556;28;20041;-68
2022/08/11 11:10:48;;;;;;;2.20;0.55;;;28.60;99.90;;;;;;5044465;28;20399;-68
2022/08/11 11:18:44;;;;;;;2.63;0.70;;;28.20;99.60;;;;;;5042308;28;19917;-68
2022/08/11 11:21:17;;;;;;;7.95;1.02;;;28.30;99.90;;;;;;5043165;28;20048;-68
2022/08/11 11:23:52;;;;;;;3.95;0.70;;;30.30;99.90;;;;;;5037622;28;20442;-68
2022/08/11 11:26:45;;;;;;;4.35;1.25;;;29.60;99.90;;;;;;5050571;28;20045;-68
2022/08/11 11:29:32;;;;;;;1.80;0.85;;;28.40;99.80;;;;;;5051560;28;20045;-68
2022/08/11 11:32:34;;;;;;;3.15;0.60;;;28.20;98.70;;;;;;5035558;28;20107;-69
2022/08/11 11:35:15;;;;;;;1.20;0.50;;;28.70;99.90;;;;;;5048890;28;20047;-68
2022/08/11 11:37:45;;;;;;;2.47;0.60;;;28.60;99.90;;;;;;5036235;28;20033;-68
2022/08/11 11:40:13;;;;;;;3.13;0.73;;;30.20;99.90;;;;;;5053873;28;20036;-68
2022/08/11 11:42:41;;;;;;;3.33;0.65;;;28.50;99.90;;;;;;5053343;28;20056;-68
2022/08/11 11:45:08;;;;;;;3.75;0.82;;;28.40;98.80;;;;;;5055216;28;20116;-68
2022/08/11 11:47:36;;;;;;;3.63;0.70;;;28.20;99.00;;;;;;5054879;28;20048;-68
2022/08/11 11:50:03;;;;;;;3.35;1.10;;;28.30;99.50;;;;;;5055177;28;20036;-68
2022/08/11 11:52:29;;;;;;;5.20;0.90;;;28.50;99.90;;;;;;5054904;28;20068;-68
2022/08/11 11:54:56;;;;;;;4.78;0.90;;;30.30;99.90;;;;;;5053506;28;20049;-67
2022/08/11 12:03:01;;;;;;;2.10;0.70;;;28.40;99.80;;;;;;5052860;28;20065;-67
2022/08/11 12:05:27;;;;;;;3.85;0.80;;;28.60;99.40;;;;;;5054580;28;20033;-67
2022/08/11 12:13:39;;;;;;;3.42;0.88;;;29.90;99.30;;;;;;5047054;28;20116;-67
2022/08/11 12:13:43;;;;;;;5.20;1.15;;;28.70;98.70;;;;;;5053289;28;20052;-67
2022/08/11 12:16:12;;;;;;;1.77;0.68;;;30.20;99.40;;;;;;5054075;28;20106;-67
2022/08/11 12:18:39;;;;;;;1.45;0.52;;;29.20;99.30;;;;;;5053076;28;20044;-66
2022/08/11 12:21:08;;;;;;;1.10;0.35;;;28.50;98.20;;;;;;5054511;28;20047;-67
2022/08/11 12:29:05;;;;;;;;;;;28.70;98.10;;;;;;5067816;28;20044;-67
2022/08/11 12:31:32;;;;;;;1.98;0.57;;;28.70;98.60;;;;;;5072483;28;19924;-67
2022/08/11 12:34:09;;;;;;;6.15;0.63;;;28.70;98.50;;;;;;5058542;28;20076;-67
2022/08/11 12:36:37;;;;;;;4.32;0.60;;;28.60;98.80;;;;;;5056415;28;20032;-67
2022/08/11 12:39:07;;;;;;;3.05;0.70;;;30.40;98.80;;;;;;5058766;28;20041;-67
2022/08/11 12:47:07;;;;;;;2.88;0.50;;;28.80;98.80;;;;;;5041485;28;20044;-67
2022/08/11 12:52:28;;;;;;;0.77;0.30;;;29.00;97.40;;;;;;5050442;28;20088;-67
2022/08/11 12:55:08;;;;;;;2.97;0.63;;;28.90;96.70;;;;;;5050505;28;20045;-67
2022/08/11 13:06:01;;;;;;;1.45;0.52;;;29.00;96.40;;;;;;5050379;28;20096;-67
2022/08/11 13:08:29;;;;;;;2.20;0.47;;;29.30;96.40;;;;;;5048986;28;20075;-67
2022/08/11 13:13:43;;;;;;;1.98;0.60;;;29.10;96.60;;;;;;5049404;28;20041;-67
2022/08/11 13:16:10;;;;;;;7.30;1.05;;;30.20;97.90;;;;;;5048359;28;20453;-68
2022/08/11 13:18:38;;;;;;;2.53;0.38;;;29.10;97.80;;;;;;5050146;28;20044;-67
2022/08/11 13:21:04;;;;;;;3.55;0.40;;;30.60;97.40;;;;;;5048558;28;20413;-67
2022/08/11 13:23:30;;;;;;;6.40;0.73;;;29.20;97.00;;;;;;5048411;28;20044;-68
2022/08/11 13:25:56;;;;;;;2.08;0.80;;;29.20;97.50;;;;;;5044124;28;20083;-67
2022/08/11 13:28:23;;;;;;;2.78;0.47;;;29.10;97.70;;;;;;5048162;28;20045;-67
2022/08/11 13:33:43;;;;;;;4.20;0.57;;;29.10;97.50;;;;;;5048382;28;20049;-67
2022/08/11 13:36:10;;;;;;;1.83;0.50;;;29.10;96.50;;;;;;5049274;28;20040;-67
2022/08/11 13:38:40;;;;;;;2.25;0.50;;;29.30;97.30;;;;;;5048052;28;20045;-67
2022/08/11 13:41:36;;;;;;;2.13;0.82;;;29.10;97.20;;;;;;5049399;28;20076;-67
2022/08/11 13:43:53;;;;;;;1.67;0.68;;;29.20;96.50;;;;;;5047769;28;20095;-67
2022/08/11 13:46:21;;;;;;;7.13;0.60;;;29.20;96.10;;;;;;5049181;28;20499;-67
2022/08/11 13:48:48;;;;;;;1.75;0.40;;;29.20;96.20;;;;;;5049265;28;20059;-67
2022/08/11 13:51:29;;;;;;;2.05;0.40;;;30.90;97.20;;;;;;5048896;28;20045;-67
2022/08/11 13:54:01;;;;;;;1.30;0.40;;;29.60;95.20;;;;;;5049183;28;20067;-68
2022/08/11 13:56:28;;;;;;;1.40;0.50;;;30.70;96.70;;;;;;5049326;28;20037;-67
2022/08/11 13:58:55;;;;;;;1.30;0.40;;;30.20;96.30;;;;;;5049072;28;20053;-67
2022/08/11 14:01:25;;;;;;;2.72;1.02;;;29.40;95.70;;;;;;5049315;28;20037;-67
2022/08/11 14:03:51;;;;;;;1.65;0.40;;;29.30;95.90;;;;;;5049113;28;20091;-67
2022/08/11 14:06:19;;;;;;;3.10;0.60;;;29.40;96.70;;;;;;5049001;28;20079;-67
2022/08/11 14:08:45;;;;;;;2.60;0.60;;;29.10;96.90;;;;;;5049293;28;20049;-68
2022/08/11 14:13:58;;;;;;;5.30;0.85;;;29.50;95.80;;;;;;5046974;28;20049;-67
2022/08/11 14:16:31;;;;;;;3.00;0.68;;;29.40;96.10;;;;;;5040621;28;20033;-67
2022/08/11 14:19:03;;;;;;;2.70;0.80;;;31.20;97.10;;;;;;5047589;28;20060;-67
2022/08/11 14:24:17;;;;;;;1.65;0.70;;;29.60;96.20;;;;;;5041937;28;20057;-67
2022/08/11 14:26:44;;;;;;;1.15;0.38;;;30.70;96.60;;;;;;5057293;28;20044;-67
2022/08/11 14:29:15;;;;;;;2.38;0.40;;;29.70;96.20;;;;;;5066915;28;20037;-67
2022/08/11 14:31:53;;;;;;;2.63;0.50;;;29.50;95.90;;;;;;5047140;28;20052;-67
2022/08/11 14:34:21;;;;;;;2.47;0.40;;;29.60;96.20;;;;;;5064217;28;20044;-67
2022/08/11 14:36:53;;;;;;;1.25;0.45;;;30.70;96.30;;;;;;5067227;28;20087;-67
2022/08/11 14:39:23;;;;;;;2.63;0.50;;;29.60;95.20;;;;;;5068680;28;20044;-67
2022/08/11 14:47:41;;;;;;;2.60;0.40;;;29.70;95.60;;;;;;5050280;28;20450;-67
2022/08/11 14:50:16;;;;;;;3.30;0.57;;;29.40;95.40;;;;;;5067621;28;20045;-67
2022/08/11 14:52:47;;;;;;;4.03;0.55;;;29.60;96.10;;;;;;5054931;28;20041;-67
2022/08/11 14:57:59;;;;;;;2.53;0.47;;;31.20;96.20;;;;;;5070135;28;20052;-68
2022/08/11 15:00:25;;;;;;;1.50;0.40;;;31.40;96.10;;;;;;5044431;28;20052;-67
2022/08/11 15:03:11;;;;;;;3.50;0.60;;;29.80;95.60;;;;;;5072077;28;20051;-67
2022/08/11 15:05:51;;;;;;;6.90;0.98;;;29.50;95.50;;;;;;5072191;28;20439;-68
2022/08/11 15:08:18;;;;;;;5.28;0.40;;;29.40;95.50;;;;;;5048833;28;20404;-68
2022/08/11 15:10:45;;;;;;;0.77;0.22;;;29.80;95.30;;;;;;5053541;28;20090;-67
2022/08/11 15:13:16;;;;;;;2.70;0.50;;;30.50;95.60;;;;;;5051935;28;20037;-67
2022/08/11 15:18:26;;;;;;;3.85;0.57;;;29.50;95.10;;;;;;5051437;28;20040;-67
2022/08/11 15:37:44;;;;;;;3.83;0.40;;;29.60;95.60;;;;;;5033874;28;20500;-67
2022/08/11 15:46:16;;;;;;;2.70;0.93;;;29.70;95.60;;;;;;5009874;28;20093;-67
2022/08/11 15:49:03;;;;;;;3.85;0.50;;;30.10;96.00;;;;;;5034809;28;20037;-68
2022/08/11 15:51:36;;;;;;;4.72;1.05;;;29.50;95.50;;;;;;5035415;28;20415;-67
2022/08/11 15:54:08;;;;;;;2.97;0.63;;;29.50;95.20;;;;;;5033161;28;20057;-68
2022/08/11 15:56:35;;;;;;;3.55;0.70;;;29.40;95.90;;;;;;5037410;28;20392;-67
2022/08/11 16:04:35;;;;;;;1.63;0.38;;;29.30;96.40;;;;;;5045270;28;20492;-67
2022/08/11 16:07:06;;;;;;;2.05;0.50;;;30.90;96.90;;;;;;5052265;28;20403;-67
2022/08/11 16:09:40;;;;;;;1.50;0.57;;;29.50;96.50;;;;;;5053250;28;20503;-67
2022/08/11 16:12:11;;;;;;;1.42;0.40;;;29.30;96.00;;;;;;5053242;28;20037;-67
2022/08/11 16:17:31;;;;;;;4.45;0.50;;;30.80;97.20;;;;;;5029772;28;20073;-67
2022/08/11 16:19:58;;;;;;;2.20;0.52;;;29.10;96.70;;;;;;5030878;28;20537;-67
2022/08/11 16:22:36;;;;;;;3.50;0.70;;;29.60;96.90;;;;;;5036484;28;20072;-67
2022/08/11 16:25:04;;;;;;;4.13;0.73;;;30.10;97.30;;;;;;5058460;28;20516;-67
2022/08/11 16:27:34;;;;;;;2.83;0.65;;;29.40;97.00;;;;;;5055649;28;20136;-68
2022/08/11 16:30:00;;;;;;;1.95;0.57;;;29.10;97.30;;;;;;5050358;28;20487;-67
2022/08/11 16:32:27;;;;;;;2.10;0.60;;;31.00;97.90;;;;;;5049505;28;20088;-67
2022/08/11 16:40:45;;;;;;;3.80;0.70;;;29.00;97.10;;;;;;5049308;28;20531;-68
2022/08/11 16:48:48;;;;;;;2.67;0.65;;;29.20;97.80;;;;;;5050278;28;20092;-67
2022/08/11 16:51:14;;;;;;;2.90;0.70;;;28.70;97.80;;;;;;5050701;28;20037;-67
2022/08/11 16:53:43;;;;;;;4.05;0.50;;;28.60;97.80;;;;;;5050692;28;20124;-67
2022/08/11 16:56:15;;;;;;;5.60;0.55;;;28.90;98.00;;;;;;5049755;28;20498;-67
2022/08/11 17:01:28;;;;;;;3.00;0.75;;;29.50;98.10;;;;;;5050181;28;20045;-67
2022/08/11 17:16:05;;;;;;;4.55;0.60;;;28.60;98.20;;;;;;5043567;28;20049;-67
2022/08/11 17:17:59;;;;;;;2.30;0.60;;;28.40;98.20;;;;;;5048430;28;20076;-68
2022/08/11 17:20:27;;;;;;;2.33;0.63;;;28.50;98.40;;;;;;5048700;28;20098;-68
2022/08/11 17:25:40;;;;;;;5.90;1.00;;;28.20;98.70;;;;;;5049786;28;20049;-68
2022/08/11 17:28:06;;;;;;;2.85;0.68;;;27.90;98.80;;;;;;5049617;28;20068;-67
2022/08/11 17:36:06;;;;;;;2.85;0.70;;;27.80;99.60;;;;;;5055574;28;20053;-68
2022/08/11 17:38:32;;;;;;;5.85;0.60;;;27.80;99.70;;;;;;5061418;28;20539;-68
2022/08/11 17:49:19;;;;;;;4.43;0.70;;;27.50;99.90;;;;;;5049086;28;20061;-68
2022/08/11 18:00:07;;;;;;;3.72;0.68;;;26.90;99.90;;;;;;5042012;28;20416;-67
2022/08/11 18:05:21;;;;;;;4.63;0.80;;;26.90;99.90;;;;;;5043789;28;20124;-68
